^^
B2 Weather Station Historical Data
Daily Summary for October 10, 2018 Units:  English    Metric   Both
Daily Weekly Monthly Yearly Custom
  High: Low: Average:
Temperature: 72.2 °F 52.3 °F 67.3 °F
Dew Point: 69.8 °F 45.6 °F 63.8 °F
Humidity: 95% 77% 89%
Wind Speed: 26.5mph 0mph 10.6mph
Wind Gust: 13mph - -
Wind- - SSW
Pressure: 29.82 in 29.58 in -
Precipitation: 0.45 in    
Historical Graphs
 
 
Tabular Data for October 10, 2018
Time Temperature Dew Point Pressure Wind Wind Speed Wind Gust Humidity Rainfall Rate (Hourly) solar
00:04 72.2 °F 66.7 °F 29.82 in SSE 10.4 mph 4 mph 83% 0 in 0.00 W/m2
00:09 72 °F 66.6 °F 29.82 in SSE 5.8 mph 4.3 mph 83% 0 in 0.00 W/m2
00:14 72.1 °F 66.6 °F 29.82 in SSE 11.5 mph 4.5 mph 83% 0 in 0.00 W/m2
00:19 72 °F 66.6 °F 29.82 in SSW 5.8 mph 6.3 mph 83% 0 in 0.00 W/m2
00:24 71.9 °F 66.5 °F 29.82 in South 11.5 mph 4.3 mph 83% 0 in 0.00 W/m2
00:29 71.9 °F 66.5 °F 29.82 in SSE 9.2 mph 3.8 mph 83% 0 in 0.00 W/m2
00:34 71.9 °F 66.8 °F 29.82 in SSE 9.2 mph 4.2 mph 84% 0 in 0.00 W/m2
00:39 71.8 °F 66.7 °F 29.82 in SSE 11.5 mph 6 mph 84% 0 in 0.00 W/m2
00:44 71.7 °F 66.6 °F 29.82 in SSE 6.9 mph 5.8 mph 84% 0 in 0.00 W/m2
00:49 71.6 °F 66.5 °F 29.82 in SE 11 mph 7.8 mph 84% 0 in 0.00 W/m2
00:54 71.6 °F 66.5 °F 29.81 in SSE 10.4 mph 5.6 mph 84% 0 in 0.00 W/m2
00:59 71.5 °F 66.4 °F 29.81 in SSE 11.5 mph 5.3 mph 84% 0 in 0.00 W/m2
01:04 71.3 °F 66.2 °F 29.81 in South 10.4 mph 6.2 mph 84% 0 in 0.00 W/m2
01:09 71.2 °F 66.1 °F 29.81 in South 11.5 mph 7.6 mph 84% 0 in 0.00 W/m2
01:14 71.1 °F 66.4 °F 29.81 in SSE 11.5 mph 4.5 mph 85% 0 in 0.00 W/m2
01:19 71 °F 66.3 °F 29.81 in SSE 11.5 mph 8 mph 85% 0 in 0.00 W/m2
01:24 71 °F 66.3 °F 29.81 in SSE 8.1 mph 5.2 mph 85% 0 in 0.00 W/m2
01:29 70.9 °F 66.2 °F 29.81 in SSE 10 mph 6.6 mph 85% 0 in 0.00 W/m2
01:34 70.9 °F 66.2 °F 29.81 in South 11.5 mph 4.8 mph 85% 0 in 0.00 W/m2
01:39 70.9 °F 66.2 °F 29.81 in SSE 9.2 mph 7.1 mph 85% 0 in 0.00 W/m2
01:44 70.9 °F 66.2 °F 29.81 in South 10.4 mph 6.3 mph 85% 0 in 0.00 W/m2
01:49 70.9 °F 66.2 °F 29.80 in South 11.5 mph 5.4 mph 85% 0 in 0.00 W/m2
01:54 70.8 °F 66.1 °F 29.81 in SSE 10 mph 6.4 mph 85% 0 in 0.00 W/m2
01:59 70.8 °F 66.1 °F 29.81 in South 9.2 mph 5.7 mph 85% 0 in 0.00 W/m2
02:04 70.7 °F 66 °F 29.81 in SSE 8.1 mph 5.6 mph 85% 0 in 0.00 W/m2
02:09 70.6 °F 65.9 °F 29.81 in SSE 10.4 mph 4 mph 85% 0 in 0.00 W/m2
02:14 70.4 °F 65.7 °F 29.80 in SSE 9.2 mph 6.4 mph 85% 0 in 0.00 W/m2
02:19 70.2 °F 65.8 °F 29.80 in SSE 5.8 mph 3.6 mph 86% 0 in 0.00 W/m2
02:24 70 °F 65.6 °F 29.80 in SE 6.9 mph 2.3 mph 86% 0 in 0.00 W/m2
02:29 69.9 °F 65.5 °F 29.80 in SSE 8.1 mph 6.7 mph 86% 0 in 0.00 W/m2
02:34 69.8 °F 65.4 °F 29.80 in SSE 5.8 mph 3 mph 86% 0 in 0.00 W/m2
02:39 69.6 °F 65.6 °F 29.79 in South 9.2 mph 5.7 mph 87% 0 in 0.00 W/m2
02:44 69.4 °F 65.4 °F 29.79 in SSE 6.9 mph 2.9 mph 87% 0 in 0.00 W/m2
02:49 69.2 °F 65.2 °F 29.79 in SSE 6.9 mph 4.1 mph 87% 0 in 0.00 W/m2
02:54 69 °F 65.3 °F 29.79 in SSE 6.9 mph 3.9 mph 88% 0 in 0.00 W/m2
02:59 68.9 °F 65.2 °F 29.79 in SSE 6.9 mph 4.4 mph 88% 0 in 0.00 W/m2
03:04 68.8 °F 65.1 °F 29.79 in SSE 5.8 mph 1.4 mph 88% 0 in 0.00 W/m2
03:09 68.7 °F 65 °F 29.78 in SSE 5 mph 1.6 mph 88% 0 in 0.00 W/m2
03:14 68.7 °F 65 °F 29.78 in SSE 3.5 mph 2.2 mph 88% 0 in 0.00 W/m2
03:19 68.6 °F 64.9 °F 29.78 in South 4.6 mph 2 mph 88% 0 in 0.00 W/m2
03:24 68.6 °F 65.2 °F 29.78 in South 8.1 mph 3 mph 89% 0 in 0.00 W/m2
03:29 68.6 °F 65.2 °F 29.78 in South 8.1 mph 4.6 mph 89% 0 in 0.00 W/m2
03:34 68.6 °F 64.9 °F 29.78 in South 8 mph 5.5 mph 88% 0 in 0.00 W/m2
03:39 68.8 °F 65.1 °F 29.77 in South 9.2 mph 5.4 mph 88% 0 in 0.00 W/m2
03:44 68.9 °F 65.2 °F 29.77 in SSE 10.4 mph 5.5 mph 88% 0 in 0.00 W/m2
03:49 69 °F 65.3 °F 29.77 in South 11.5 mph 3.8 mph 88% 0 in 0.00 W/m2
03:54 69 °F 65.3 °F 29.77 in SSE 6.9 mph 5.4 mph 88% 0 in 0.00 W/m2
03:59 68.8 °F 65.1 °F 29.77 in South 6.9 mph 1.3 mph 88% 0 in 0.00 W/m2
04:04 68.7 °F 65 °F 29.77 in SSE 4.6 mph 2.6 mph 88% 0 in 0.00 W/m2
04:09 68.5 °F 64.8 °F 29.77 in SSE 8.1 mph 3 mph 88% 0 in 0.00 W/m2
04:14 68.4 °F 64.7 °F 29.76 in SSE 8.1 mph 4.9 mph 88% 0 in 0.00 W/m2
04:19 68.4 °F 64.7 °F 29.76 in SSE 5.8 mph 2.2 mph 88% 0 in 0.00 W/m2
04:24 68.3 °F 64.6 °F 29.76 in SSE 6 mph 2.9 mph 88% 0 in 0.00 W/m2
04:29 68.2 °F 64.5 °F 29.76 in SSE 6.9 mph 4 mph 88% 0 in 0.00 W/m2
04:34 68.1 °F 64.7 °F 29.76 in South 4.6 mph 1.6 mph 89% 0 in 0.00 W/m2
04:39 68 °F 64.6 °F 29.76 in SSE 5.8 mph 1.1 mph 89% 0 in 0.00 W/m2
04:44 67.9 °F 64.5 °F 29.76 in South 3.5 mph 1.4 mph 89% 0 in 0.00 W/m2
04:49 67.8 °F 64.4 °F 29.76 in South 5.8 mph 2 mph 89% 0 in 0.00 W/m2
04:54 67.8 °F 64.4 °F 29.76 in SSE 4.6 mph 1.9 mph 89% 0 in 0.00 W/m2
04:59 67.8 °F 64.4 °F 29.75 in SSE 5.8 mph 1.1 mph 89% 0 in 0.00 W/m2
05:04 67.7 °F 64.3 °F 29.75 in SSE 2.3 mph 0.5 mph 89% 0 in 0.00 W/m2
05:09 67.6 °F 64.2 °F 29.75 in Calm     89% 0 in 0.00 W/m2
05:14 67.3 °F 63.9 °F 29.76 in SSE 3.5 mph 0.4 mph 89% 0 in 0.00 W/m2
05:19 67.1 °F 64.1 °F 29.75 in Calm     90% 0 in 0.00 W/m2
05:24 66.9 °F 63.9 °F 29.75 in SSE 4.6 mph   90% 0 in 0.00 W/m2
05:29 66.8 °F 63.8 °F 29.75 in SE 4.6 mph 3.4 mph 90% 0 in 0.00 W/m2
05:34 66.7 °F 64 °F 29.75 in SE 3.5 mph 2.4 mph 91% 0 in 0.00 W/m2
05:39 66.7 °F 64 °F 29.75 in SSE 3.5 mph 1 mph 91% 0 in 0.00 W/m2
05:44 66.8 °F 64.1 °F 29.74 in SE 6.9 mph 2.4 mph 91% 0 in 0.00 W/m2
05:49 66.8 °F 64.1 °F 29.74 in SE 4 mph 2.2 mph 91% 0 in 0.00 W/m2
05:54 66.8 °F 64.1 °F 29.74 in SSE 4 mph 2 mph 91% 0 in 0.00 W/m2
05:59 66.8 °F 64.1 °F 29.74 in SE 5.8 mph 3.3 mph 91% 0 in 0.00 W/m2
06:04 66.9 °F 64.2 °F 29.74 in SSE 5.8 mph 3.4 mph 91% 0 in 0.00 W/m2
06:09 67 °F 64.3 °F 29.73 in SSE 4.6 mph 3.7 mph 91% 0 in 0.00 W/m2
06:14 67.1 °F 64.4 °F 29.73 in South 6.9 mph 4.5 mph 91% 0 in 0.00 W/m2
06:19 67.2 °F 64.5 °F 29.74 in SSE 10.4 mph 3.5 mph 91% 0 in 0.00 W/m2
06:24 67.4 °F 64.4 °F 29.74 in SSE 8 mph 5.7 mph 90% 0 in 0.00 W/m2
06:29 67.5 °F 64.5 °F 29.73 in South 9.2 mph 3.6 mph 90% 0 in 0.00 W/m2
06:34 67.6 °F 64.6 °F 29.73 in South 4.6 mph 4.7 mph 90% 0 in 0.00 W/m2
06:39 67.6 °F 64.6 °F 29.73 in SSE 5.8 mph 1.1 mph 90% 0 in 0.00 W/m2
06:44 67.6 °F 64.6 °F 29.73 in SSE 6.9 mph 5.1 mph 90% 0 in 0.00 W/m2
06:49 67.7 °F 64.7 °F 29.73 in SSE 6.9 mph 1.2 mph 90% 0 in 0.00 W/m2
06:54 67.7 °F 64.7 °F 29.73 in SSE 2 mph 1 mph 90% 0 in 0.00 W/m2
06:59 67.7 °F 64.7 °F 29.72 in SSE 5.8 mph 3.9 mph 90% 0 in 7.00 W/m2
07:04 67.8 °F 64.8 °F 29.72 in SSE 6.9 mph 5.3 mph 90% 0 in 9.00 W/m2
07:09 67.9 °F 64.9 °F 29.72 in SSE 8.1 mph 5.4 mph 90% 0 in 14.00 W/m2
07:14 68.1 °F 65.1 °F 29.72 in SSE 7 mph 1.4 mph 90% 0 in 12.00 W/m2
07:19 68.3 °F 65.3 °F 29.72 in South 7 mph 5.6 mph 90% 0 in 16.00 W/m2
07:24 68.6 °F 65.5 °F 29.72 in SSE 9.2 mph 6.3 mph 90% 0 in 18.00 W/m2
07:29 68.8 °F 65.4 °F 29.72 in South 9.2 mph 5.2 mph 89% 0 in 12.00 W/m2
07:34 68.9 °F 65.5 °F 29.72 in SSE 9.2 mph 5.2 mph 89% 0 in 12.00 W/m2
07:39 69 °F 65.6 °F 29.72 in SSE 9.2 mph 3.4 mph 89% 0 in 16.00 W/m2
07:44 69.2 °F 65.8 °F 29.72 in SE 9.2 mph 5.7 mph 89% 0 in 23.00 W/m2
07:49 69.4 °F 66 °F 29.72 in South 10.4 mph 5.3 mph 89% 0 in 40.00 W/m2
07:54 69.5 °F 65.8 °F 29.72 in South 10.4 mph 5.3 mph 88% 0 in 51.00 W/m2
07:59 69.6 °F 65.9 °F 29.72 in South 13.8 mph 8.3 mph 88% 0 in 56.00 W/m2
08:04 69.8 °F 66.1 °F 29.72 in SSE 10.4 mph 3.1 mph 88% 0 in 72.00 W/m2
08:09 70 °F 66.3 °F 29.72 in SSE 11.5 mph 6.5 mph 88% 0 in 79.00 W/m2
08:14 70.1 °F 66.4 °F 29.72 in SSE 16.1 mph 9.8 mph 88% 0 in 70.00 W/m2
08:19 70.4 °F 66.7 °F 29.71 in SSE 14 mph 7.9 mph 88% 0 in 63.00 W/m2
08:24 70.5 °F 66.4 °F 29.71 in SSE 11.5 mph 8.9 mph 87% 0 in 56.00 W/m2
08:29 70.6 °F 66.5 °F 29.71 in SSE 13.8 mph 7.4 mph 87% 0 in 47.00 W/m2
08:34 70.7 °F 66.6 °F 29.71 in South 12.7 mph 10 mph 87% 0 in 40.00 W/m2
08:39 70.8 °F 66.7 °F 29.71 in South 13.8 mph 7.3 mph 87% 0 in 33.00 W/m2
08:44 70.9 °F 66.8 °F 29.71 in SE 15 mph 9.4 mph 87% 0 in 42.00 W/m2
08:49 71 °F 66.9 °F 29.71 in SSE 15 mph 10.8 mph 87% 0 in 49.00 W/m2
08:54 71.1 °F 67 °F 29.71 in South 12.7 mph 6 mph 87% 0 in 46.00 W/m2
08:59 71.1 °F 67 °F 29.71 in SSE 15 mph 8.9 mph 87% 0 in 33.00 W/m2
09:04 71.1 °F 67 °F 29.71 in SSE 11.5 mph 7.3 mph 87% 0 in 26.00 W/m2
09:09 71.1 °F 67.4 °F 29.70 in South 10.4 mph 6 mph 88% 0 in 18.00 W/m2
09:14 71 °F 67.3 °F 29.70 in South 12.7 mph 8.2 mph 88% 0 in 12.00 W/m2
09:19 70.8 °F 67.4 °F 29.70 in SSE 13.8 mph 5 mph 89% 0 in 19.00 W/m2
09:24 70.3 °F 67.2 °F 29.70 in South 10.4 mph 5.4 mph 90% 0.01 in 28.00 W/m2
09:29 70 °F 67.3 °F 29.70 in SSE 13.8 mph 7.8 mph 91% 0.04 in 14.00 W/m2
09:34 69.6 °F 67.2 °F 29.70 in SSE 11.5 mph 4.4 mph 92% 0.05 in 21.00 W/m2
09:39 69.5 °F 67.4 °F 29.70 in South 11.5 mph 5.8 mph 93% 0.05 in 21.00 W/m2
09:44 69.3 °F 67.2 °F 29.69 in SSE 12.7 mph 6.2 mph 93% 0.05 in 23.00 W/m2
09:49 69.2 °F 67.1 °F 29.70 in South 10 mph 3.8 mph 93% 0.05 in 26.00 W/m2
09:54 69.2 °F 67.1 °F 29.69 in South 8.1 mph 3.4 mph 93% 0.08 in 47.00 W/m2
09:59 69.2 °F 67.4 °F 29.70 in South 11.5 mph 6.5 mph 94% 0.08 in 35.00 W/m2
10:04 69.2 °F 67.4 °F 29.69 in South 10.4 mph 4 mph 94% 0.09 in 46.00 W/m2
10:09 69.3 °F 67.5 °F 29.69 in SSE 15 mph 8.8 mph 94% 0.09 in 83.00 W/m2
10:14 69.5 °F 67.7 °F 29.69 in SSE 8.1 mph 5.4 mph 94% 0.09 in 93.00 W/m2
10:19 69.6 °F 67.8 °F 29.69 in South 11.5 mph 5 mph 94% 0.09 in 104.00 W/m2
10:24 69.8 °F 68 °F 29.68 in SSE 12.7 mph 5.8 mph 94% 0.08 in 153.00 W/m2
10:29 70 °F 68.2 °F 29.68 in SSE 9.2 mph 5.6 mph 94% 0.05 in 139.00 W/m2
10:34 70.2 °F 68.4 °F 29.68 in SSE 10.4 mph 6.3 mph 94% 0.04 in 135.00 W/m2
10:39 70.2 °F 68.4 °F 29.68 in SSE 16.1 mph 6 mph 94% 0.04 in 155.00 W/m2
10:44 70.3 °F 68.5 °F 29.68 in SSE 15 mph 8.9 mph 94% 0.04 in 114.00 W/m2
10:49 70.3 °F 68.5 °F 29.68 in SSE 13.8 mph 9 mph 94% 0.04 in 100.00 W/m2
10:54 70.4 °F 68.6 °F 29.68 in South 4.6 mph 2.1 mph 94% 0.01 in 158.00 W/m2
10:59 70.6 °F 68.8 °F 29.67 in SSE 12.7 mph 9.4 mph 94% 0.01 in 179.00 W/m2
11:04 70.7 °F 68.9 °F 29.67 in SSW 12.7 mph 6.1 mph 94% 0 in 149.00 W/m2
11:09 70.7 °F 68.9 °F 29.67 in South 10.4 mph 6.4 mph 94% 0 in 77.00 W/m2
11:14 70.6 °F 68.8 °F 29.67 in South 12 mph 8.3 mph 94% 0 in 65.00 W/m2
11:19 70.7 °F 68.9 °F 29.67 in SSE 10.4 mph 5.4 mph 94% 0 in 72.00 W/m2
11:24 70.7 °F 68.9 °F 29.67 in SSE 18.4 mph 3.8 mph 94% 0 in 100.00 W/m2
11:29 70.9 °F 69.1 °F 29.67 in SSW 9.2 mph 4.9 mph 94% 0 in 134.00 W/m2
11:34 71.1 °F 69.3 °F 29.66 in South 11.5 mph 5.8 mph 94% 0 in 176.00 W/m2
11:39 71.2 °F 69.4 °F 29.66 in South 9.2 mph 4.5 mph 94% 0 in 125.00 W/m2
11:44 71.3 °F 69.5 °F 29.66 in South 15 mph 5.2 mph 94% 0 in 258.00 W/m2
11:49 71.6 °F 69.8 °F 29.66 in SSW 12.7 mph 6.9 mph 94% 0 in 169.00 W/m2
11:54 71.6 °F 69.5 °F 29.65 in SSW 11.5 mph 4.9 mph 93% 0 in 95.00 W/m2
11:59 71.5 °F 69.4 °F 29.65 in South 17.3 mph 3.6 mph 93% 0 in 163.00 W/m2
12:04 71.7 °F 69.6 °F 29.65 in South 10 mph 6.4 mph 93% 0 in 86.00 W/m2
12:09 71.5 °F 69.4 °F 29.64 in SSE 9.2 mph 4.7 mph 93% 0 in 67.00 W/m2
12:14 71.6 °F 69.5 °F 29.64 in SSE 9.2 mph 4.8 mph 93% 0 in 86.00 W/m2
12:19 71.6 °F 69.5 °F 29.64 in SSE 10.4 mph 5.4 mph 93% 0 in 62.00 W/m2
12:24 71.5 °F 69.4 °F 29.64 in SSE 10.4 mph 7.9 mph 93% 0 in 28.00 W/m2
12:29 71.2 °F 69.1 °F 29.64 in SSE 8.1 mph 4.2 mph 93% 0.01 in 81.00 W/m2
12:34 70.9 °F 69.1 °F 29.63 in SSE 8.1 mph 3.7 mph 94% 0.01 in 65.00 W/m2
12:39 70.8 °F 69 °F 29.63 in SSE 8 mph 5.8 mph 94% 0.01 in 37.00 W/m2
12:44 70.5 °F 68.7 °F 29.63 in South 12.7 mph 9.2 mph 94% 0.02 in 32.00 W/m2
12:49 70.3 °F 68.5 °F 29.62 in South 11.5 mph 5.4 mph 94% 0.03 in 37.00 W/m2
12:54 70.1 °F 68.3 °F 29.62 in SSE 13.8 mph 6.3 mph 94% 0.04 in 25.00 W/m2
12:59 70 °F 68.2 °F 29.62 in SSE 10.4 mph 5 mph 94% 0.07 in 33.00 W/m2
13:04 69.8 °F 68 °F 29.62 in South 16.1 mph 5.9 mph 94% 0.08 in 26.00 W/m2
13:09 69.8 °F 68 °F 29.62 in SSE 13.8 mph 4.5 mph 94% 0.14 in 54.00 W/m2
13:14 69.8 °F 68 °F 29.61 in SSE 10 mph 5.2 mph 94% 0.16 in 83.00 W/m2
13:19 69.9 °F 68.1 °F 29.61 in SSE 11.5 mph 7 mph 94% 0.16 in 63.00 W/m2
13:24 69.8 °F 68 °F 29.61 in South 11.5 mph 7.5 mph 94% 0.17 in 77.00 W/m2
13:29 69.9 °F 68.1 °F 29.61 in South 9.2 mph 6 mph 94% 0.16 in 65.00 W/m2
13:34 69.9 °F 68.1 °F 29.61 in SSW 8.1 mph 5.7 mph 94% 0.16 in 54.00 W/m2
13:39 69.9 °F 68.1 °F 29.61 in SSW 11.5 mph 6 mph 94% 0.16 in 74.00 W/m2
13:44 69.9 °F 68.1 °F 29.61 in South 8.1 mph 6 mph 94% 0.15 in 105.00 W/m2
13:49 70.1 °F 68.3 °F 29.61 in SSE 15 mph 6.8 mph 94% 0.14 in 95.00 W/m2
13:54 70.1 °F 68.3 °F 29.61 in SSW 11.5 mph 4.8 mph 94% 0.13 in 56.00 W/m2
13:59 70 °F 68.2 °F 29.60 in SSE 11.5 mph 6.6 mph 94% 0.1 in 63.00 W/m2
14:04 70.1 °F 68.3 °F 29.60 in SSE 15 mph 4.1 mph 94% 0.09 in 81.00 W/m2
14:09 70.2 °F 68.7 °F 29.60 in SSW 8.1 mph 5 mph 95% 0.03 in 56.00 W/m2
14:14 70.2 °F 68.7 °F 29.59 in South 12.7 mph 4.5 mph 95% 0.01 in 63.00 W/m2
14:19 70.2 °F 68.7 °F 29.59 in SSE 10.4 mph 6 mph 95% 0.01 in 54.00 W/m2
14:24 70.2 °F 68.7 °F 29.59 in South 11.5 mph 5.8 mph 95% 0 in 86.00 W/m2
14:29 70.2 °F 68.7 °F 29.59 in South 16.1 mph 8.7 mph 95% 0 in 56.00 W/m2
14:34 70.2 °F 68.7 °F 29.58 in South 9.2 mph 5.3 mph 95% 0 in 116.00 W/m2
14:39 70.5 °F 69 °F 29.58 in South 12 mph 6.5 mph 95% 0 in 151.00 W/m2
14:44 70.5 °F 69 °F 29.59 in South 11.5 mph 10.4 mph 95% 0 in 90.00 W/m2
14:49 70.5 °F 69 °F 29.59 in SSE 12.7 mph 8.2 mph 95% 0 in 76.00 W/m2
14:54 70.5 °F 69 °F 29.58 in South 11.5 mph 4.7 mph 95% 0 in 86.00 W/m2
14:59 70.4 °F 68.9 °F 29.58 in South 11.5 mph 3.2 mph 95% 0 in 33.00 W/m2
15:04 70.4 °F 68.9 °F 29.58 in SSE 10.4 mph 1.9 mph 95% 0.02 in 70.00 W/m2
15:09 70.4 °F 68.9 °F 29.58 in SSE 10 mph 5.1 mph 95% 0.04 in 35.00 W/m2
15:14 70.3 °F 68.8 °F 29.58 in SSE 14 mph 3.9 mph 95% 0.07 in 25.00 W/m2
15:19 70.2 °F 68.7 °F 29.59 in SW 7 mph 1.5 mph 95% 0.09 in 9.00 W/m2
15:24 69.5 °F 67.7 °F 29.59 in WSW 13.8 mph 6.9 mph 94% 0.17 in 49.00 W/m2
15:29 68.8 °F 67.3 °F 29.59 in WSW 9.2 mph 5 mph 95% 0.18 in 46.00 W/m2
15:34 68.4 °F 66.6 °F 29.60 in West 14 mph 9 mph 94% 0.19 in 33.00 W/m2
15:39 67.6 °F 65.8 °F 29.60 in SW 8.1 mph 5.6 mph 94% 0.19 in 100.00 W/m2
15:44 67.6 °F 65.8 °F 29.60 in SW 8.1 mph 6.9 mph 94% 0.19 in 74.00 W/m2
15:49 67.4 °F 65.6 °F 29.59 in SW 5.8 mph 4 mph 94% 0.19 in 91.00 W/m2
15:54 67.5 °F 65.7 °F 29.59 in SW 9.2 mph 6.5 mph 94% 0.19 in 81.00 W/m2
15:59 67.4 °F 65.6 °F 29.59 in WSW 11.5 mph 5.8 mph 94% 0.19 in 118.00 W/m2
16:04 67.4 °F 65.6 °F 29.59 in SW 8.1 mph 6.1 mph 94% 0.17 in 132.00 W/m2
16:09 67.4 °F 65.6 °F 29.59 in SW 11.5 mph 5.6 mph 94% 0.15 in 123.00 W/m2
16:14 67.4 °F 65.6 °F 29.59 in SW 9.2 mph 4.1 mph 94% 0.12 in 186.00 W/m2
16:19 67.9 °F 66.1 °F 29.59 in WSW 8.1 mph 6.8 mph 94% 0.1 in 390.00 W/m2
16:24 68.3 °F 66.5 °F 29.59 in WSW 6.9 mph 2.8 mph 94% 0.02 in 113.00 W/m2
16:29 68.3 °F 66.5 °F 29.59 in WSW 8.1 mph 5.4 mph 94% 0.01 in 139.00 W/m2
16:34 68.5 °F 66.7 °F 29.59 in WSW 5.8 mph 3.7 mph 94% 0 in 130.00 W/m2
16:39 68.9 °F 67.1 °F 29.59 in SSW 6.9 mph 4.8 mph 94% 0 in 111.00 W/m2
16:44 68.8 °F 67 °F 29.59 in WSW 8.1 mph 5.2 mph 94% 0 in 109.00 W/m2
16:49 69.3 °F 67.2 °F 29.59 in WSW 11.5 mph 4 mph 93% 0 in 246.00 W/m2
16:54 69.7 °F 67.3 °F 29.59 in SW 9.2 mph 4.8 mph 92% 0 in 197.00 W/m2
16:59 70 °F 67.6 °F 29.59 in WSW 6.9 mph 4.5 mph 92% 0 in 153.00 W/m2
17:04 70 °F 67.3 °F 29.59 in WSW 9 mph 7.1 mph 91% 0 in 167.00 W/m2
17:09 70.1 °F 67.3 °F 29.59 in SW 6.9 mph 5.3 mph 91% 0 in 141.00 W/m2
17:14 70.3 °F 67.5 °F 29.60 in South 5.8 mph 2.8 mph 91% 0 in 125.00 W/m2
17:19 70.4 °F 67.3 °F 29.60 in SSW 6.9 mph 5.3 mph 90% 0 in 113.00 W/m2
17:24 70.3 °F 67.2 °F 29.60 in SW 5.8 mph 4 mph 90% 0 in 107.00 W/m2
17:29 70.5 °F 67.4 °F 29.60 in West 6 mph 3 mph 90% 0 in 79.00 W/m2
17:34 70.5 °F 67.1 °F 29.60 in SW 9.2 mph 5.8 mph 89% 0 in 63.00 W/m2
17:39 70.3 °F 66.9 °F 29.60 in WSW 11.5 mph 6.1 mph 89% 0 in 19.00 W/m2
17:44 70 °F 66.6 °F 29.60 in SW 10.4 mph 5.3 mph 89% 0 in 18.00 W/m2
17:49 69.9 °F 66.8 °F 29.60 in SW 6.9 mph 5.4 mph 90% 0 in 16.00 W/m2
17:54 69.7 °F 66.6 °F 29.60 in SW 8.1 mph 5.1 mph 90% 0 in 14.00 W/m2
17:59 69.6 °F 66.5 °F 29.60 in SSW 8.1 mph 3.3 mph 90% 0 in 11.00 W/m2
18:04 69.4 °F 66.3 °F 29.60 in WSW 5.8 mph 2.4 mph 90% 0 in 7.00 W/m2
18:09 69.3 °F 66.6 °F 29.61 in South 6.9 mph 2.2 mph 91% 0 in 5.00 W/m2
18:14 69.1 °F 66.4 °F 29.61 in WSW 6.9 mph 3.2 mph 91% 0 in 5.00 W/m2
18:19 69 °F 66.3 °F 29.61 in South 5.8 mph 3.6 mph 91% 0 in 0.00 W/m2
18:24 68.8 °F 66.1 °F 29.60 in SSW 4.6 mph 1.9 mph 91% 0 in 0.00 W/m2
18:29 68.6 °F 65.9 °F 29.61 in SSW 4.6 mph 1.8 mph 91% 0 in 0.00 W/m2
18:34 68.5 °F 65.8 °F 29.61 in SSW 3.5 mph 1.7 mph 91% 0 in 0.00 W/m2
18:39 68.5 °F 66.1 °F 29.62 in West 6 mph 3.9 mph 92% 0 in 0.00 W/m2
18:44 68.4 °F 65.7 °F 29.62 in SW 17.3 mph 9.8 mph 91% 0 in 0.00 W/m2
18:49 68.2 °F 64.5 °F 29.62 in SW 11.5 mph 11 mph 88% 0 in 0.00 W/m2
18:54 68 °F 64 °F 29.63 in WSW 12 mph 11.1 mph 87% 0 in 0.00 W/m2
18:59 67.4 °F 63.4 °F 29.63 in SW 16.1 mph 8.3 mph 87% 0 in 0.00 W/m2
19:04 66.6 °F 62.3 °F 29.63 in SW 19.6 mph 12 mph 86% 0 in 0.00 W/m2
19:09 66.1 °F 61.8 °F 29.63 in SW 19.6 mph 8.4 mph 86% 0 in 0.00 W/m2
19:14 65.8 °F 61.8 °F 29.63 in WSW 11.5 mph 6.6 mph 87% 0 in 0.00 W/m2
19:19 65.3 °F 61.3 °F 29.64 in WSW 18.4 mph 11.1 mph 87% 0 in 0.00 W/m2
19:24 65 °F 61 °F 29.64 in WSW 13.8 mph 9 mph 87% 0 in 0.00 W/m2
19:29 64.8 °F 60.8 °F 29.64 in West 8.1 mph 4.7 mph 87% 0 in 0.00 W/m2
19:34 64.6 °F 60.6 °F 29.64 in SW 9.2 mph 8.5 mph 87% 0 in 0.00 W/m2
19:39 64.4 °F 60.1 °F 29.65 in WSW 16.1 mph 12.2 mph 86% 0 in 0.00 W/m2
19:44 64.3 °F 59.7 °F 29.65 in West 17.3 mph 10.2 mph 85% 0 in 0.00 W/m2
19:49 64.2 °F 59.6 °F 29.65 in WNW 19.6 mph 9.5 mph 85% 0 in 0.00 W/m2
19:54 64 °F 59.1 °F 29.66 in West 13.8 mph 9.6 mph 84% 0 in 0.00 W/m2
19:59 63.6 °F 58.7 °F 29.66 in WNW 19 mph 9.7 mph 84% 0 in 0.00 W/m2
20:04 63.2 °F 57.9 °F 29.66 in WNW 11.5 mph 7.2 mph 83% 0 in 0.00 W/m2
20:09 62.7 °F 57.5 °F 29.66 in WSW 19.6 mph 9.8 mph 83% 0 in 0.00 W/m2
20:14 62.4 °F 56.8 °F 29.67 in WSW 19.6 mph 12.8 mph 82% 0 in 0.00 W/m2
20:19 62.1 °F 56.2 °F 29.68 in WNW 23 mph 12.1 mph 81% 0 in 0.00 W/m2
20:24 61.7 °F 55.5 °F 29.68 in WSW 19.6 mph 12.8 mph 80% 0 in 0.00 W/m2
20:29 61.3 °F 54.4 °F 29.69 in SW 15 mph 10.8 mph 78% 0 in 0.00 W/m2
20:34 60.8 °F 53.5 °F 29.69 in NW 13.8 mph 9.4 mph 77% 0 in 0.00 W/m2
20:39 60.4 °F 53.2 °F 29.70 in WSW 18.4 mph 10.3 mph 77% 0 in 0.00 W/m2
20:44 60.1 °F 52.9 °F 29.70 in West 18.4 mph 10.1 mph 77% 0 in 0.00 W/m2
20:49 59.8 °F 52.6 °F 29.70 in SW 15 mph 8.1 mph 77% 0 in 0.00 W/m2
20:54 59.5 °F 52.6 °F 29.70 in NW 17.3 mph 9.7 mph 78% 0 in 0.00 W/m2
20:59 59.2 °F 52.3 °F 29.70 in WSW 12.7 mph 8.2 mph 78% 0 in 0.00 W/m2
21:04 59 °F 52.1 °F 29.71 in SW 15 mph 8.9 mph 78% 0 in 0.00 W/m2
21:09 58.9 °F 52.4 °F 29.71 in WSW 11.5 mph 8.2 mph 79% 0 in 0.00 W/m2
21:14 58.8 °F 52.3 °F 29.71 in WSW 11.5 mph 7.1 mph 79% 0 in 0.00 W/m2
21:19 58.9 °F 52.7 °F 29.71 in West 16.1 mph 7 mph 80% 0 in 0.00 W/m2
21:24 58.9 °F 52.7 °F 29.71 in SW 11.5 mph 4.8 mph 80% 0 in 0.00 W/m2
21:29 58.9 °F 52.7 °F 29.71 in WSW 13.8 mph 9.2 mph 80% 0 in 0.00 W/m2
21:34 58.8 °F 52.6 °F 29.71 in WSW 16.1 mph 13 mph 80% 0 in 0.00 W/m2
21:39 58.8 °F 52.6 °F 29.71 in WSW 15 mph 4.8 mph 80% 0 in 0.00 W/m2
21:44 58.6 °F 52.4 °F 29.72 in WSW 15 mph 9.3 mph 80% 0 in 0.00 W/m2
21:49 58.4 °F 52.3 °F 29.72 in WNW 19.6 mph 12.5 mph 80% 0 in 0.00 W/m2
21:54 57.9 °F 51.8 °F 29.73 in WSW 13.8 mph 9.1 mph 80% 0 in 0.00 W/m2
21:59 57.3 °F 51.2 °F 29.73 in WSW 17.3 mph 9.1 mph 80% 0 in 0.00 W/m2
22:04 56.9 °F 50.8 °F 29.73 in WSW 19.6 mph 9.6 mph 80% 0 in 0.00 W/m2
22:09 56.7 °F 50.9 °F 29.73 in NW 12.7 mph 9.5 mph 81% 0 in 0.00 W/m2
22:14 56.4 °F 50.6 °F 29.73 in WNW 12 mph 9.5 mph 81% 0 in 0.00 W/m2
22:19 56.2 °F 50.4 °F 29.73 in SW 16.1 mph 8.3 mph 81% 0 in 0.00 W/m2
22:24 56 °F 50.3 °F 29.74 in West 18.4 mph 6.6 mph 81% 0 in 0.00 W/m2
22:29 55.9 °F 50.2 °F 29.74 in WSW 10.4 mph 7.3 mph 81% 0 in 0.00 W/m2
22:34 55.7 °F 50 °F 29.74 in WSW 12.7 mph 8.5 mph 81% 0 in 0.00 W/m2
22:39 55.4 °F 49.3 °F 29.74 in WSW 26.5 mph 12.1 mph 80% 0 in 0.00 W/m2
22:44 55.2 °F 49.1 °F 29.74 in WSW 18.4 mph 9.7 mph 80% 0 in 0.00 W/m2
22:49 55 °F 49.3 °F 29.75 in WSW 17 mph 8.2 mph 81% 0 in 0.00 W/m2
22:54 54.9 °F 49.2 °F 29.75 in West 11.5 mph 5.8 mph 81% 0 in 0.00 W/m2
22:59 54.7 °F 49 °F 29.75 in WNW 11 mph 7.4 mph 81% 0 in 0.00 W/m2
23:04 54.5 °F 48.8 °F 29.75 in WSW 17.3 mph 6.3 mph 81% 0 in 0.00 W/m2
23:09 54.3 °F 48.6 °F 29.76 in WSW 14 mph 13 mph 81% 0 in 0.00 W/m2
23:14 54.1 °F 48.1 °F 29.76 in WNW 13 mph 10.2 mph 80% 0 in 0.00 W/m2
23:19 53.9 °F 47.9 °F 29.76 in WNW 15 mph 9.4 mph 80% 0 in 0.00 W/m2
23:24 53.7 °F 47.7 °F 29.76 in NNW 14 mph 6.8 mph 80% 0 in 0.00 W/m2
23:29 53.5 °F 47.5 °F 29.76 in WSW 13 mph 7.7 mph 80% 0 in 0.00 W/m2
23:34 53.2 °F 46.9 °F 29.76 in WSW 15 mph 11 mph 79% 0 in 0.00 W/m2
23:39 53 °F 46.7 °F 29.76 in WSW 12.7 mph 9.4 mph 79% 0 in 0.00 W/m2
23:44 52.8 °F 46.5 °F 29.76 in West 15 mph 7.1 mph 79% 0 in 0.00 W/m2
23:49 52.7 °F 46.4 °F 29.77 in West 10.4 mph 6 mph 79% 0 in 0.00 W/m2
23:54 52.6 °F 46.6 °F 29.77 in NW 15 mph 9.3 mph 80% 0 in 0.00 W/m2
23:59 52.3 °F 45.6 °F 29.77 in NW 13.8 mph 7.7 mph 78% 0 in 0.00 W/m2
Bourbonnais, Illinois, USA
Compliments of Weather Underground - 2 mb